Time;durP1;ratioP1;P1;durP2;ratioP2;P2;SDS_P1;SDS_P2;PMS_P1;PMS_P2;Temp;Humidity;BMP_temperature;BMP_pressure;BME280_temperature;BME280_humidity;BME280_pressure;Samples;Min_cycle;Max_cycle;Signal;HPM_P1;HPM_P2
2023/08/13 00:00:38;;;;;;;6.05;2.13;;;14.70;1.00;;;;;;5002400;28;20057;-73
2023/08/13 00:03:04;;;;;;;7.97;1.88;;;14.70;1.00;;;;;;4991101;28;20041;-73
2023/08/13 00:05:30;;;;;;;5.95;1.83;;;14.70;1.00;;;;;;4972869;28;20050;-73
2023/08/13 00:07:55;;;;;;;6.95;1.98;;;14.70;1.00;;;;;;4988811;28;20073;-73
2023/08/13 00:10:21;;;;;;;5.70;1.95;;;14.70;1.00;;;;;;4986106;28;20385;-73
2023/08/13 00:12:47;;;;;;;9.60;1.80;;;14.80;1.00;;;;;;5000495;28;20404;-73
2023/08/13 00:15:13;;;;;;;9.57;1.77;;;14.90;1.00;;;;;;4983866;28;20417;-73
2023/08/13 00:17:39;;;;;;;6.32;1.73;;;14.90;1.00;;;;;;4976487;28;20049;-75
2023/08/13 00:20:05;;;;;;;7.68;2.05;;;14.90;1.00;;;;;;4988675;28;20040;-73
2023/08/13 00:22:31;;;;;;;5.75;1.73;;;15.00;1.00;;;;;;4992431;28;20093;-74
2023/08/13 00:24:57;;;;;;;6.20;1.80;;;15.00;1.00;;;;;;5002216;28;20042;-73
2023/08/13 00:27:23;;;;;;;9.35;2.40;;;15.00;1.00;;;;;;4989160;28;20154;-73
2023/08/13 00:29:49;;;;;;;7.85;2.80;;;15.00;1.00;;;;;;5001140;28;20058;-73
2023/08/13 00:32:14;;;;;;;7.70;1.77;;;15.10;1.00;;;;;;4972381;28;20428;-73
2023/08/13 00:34:40;;;;;;;7.28;1.90;;;15.20;1.00;;;;;;4988626;28;20077;-73
2023/08/13 00:37:06;;;;;;;5.95;2.08;;;15.20;1.00;;;;;;4986386;28;20395;-72
2023/08/13 00:39:31;;;;;;;3.78;1.77;;;15.20;1.00;;;;;;4972458;28;20035;-73
2023/08/13 00:41:57;;;;;;;7.95;2.03;;;15.20;1.00;;;;;;4974634;28;20100;-72
2023/08/13 00:44:23;;;;;;;10.80;1.98;;;15.30;1.00;;;;;;4990365;28;20042;-73
2023/08/13 00:46:49;;;;;;;6.03;2.58;;;15.30;1.00;;;;;;4994682;28;20042;-73
2023/08/13 00:49:15;;;;;;;6.72;1.80;;;15.30;1.00;;;;;;5002585;28;20078;-75
2023/08/13 00:51:41;;;;;;;9.20;2.45;;;15.30;1.00;;;;;;5001845;28;20536;-73
2023/08/13 00:54:08;;;;;;;5.35;1.88;;;15.30;1.00;;;;;;4992512;28;20045;-73
2023/08/13 00:56:40;;;;;;;4.00;1.80;;;15.20;1.00;;;;;;4988935;28;20493;-73
2023/08/13 00:59:06;;;;;;;4.10;1.80;;;15.20;1.00;;;;;;4992888;28;20046;-73
2023/08/13 01:01:32;;;;;;;8.13;2.65;;;15.10;1.00;;;;;;4991963;28;20846;-72
2023/08/13 01:03:58;;;;;;;5.10;2.17;;;15.00;1.00;;;;;;4978493;28;20053;-73
2023/08/13 01:06:30;;;;;;;5.40;1.85;;;15.00;1.00;;;;;;4978935;28;20054;-73
2023/08/13 01:09:10;;;;;;;7.28;1.80;;;15.00;1.00;;;;;;4971339;28;20069;-73
2023/08/13 01:12:02;;;;;;;9.57;1.85;;;14.90;1.00;;;;;;5003548;28;20042;-73
2023/08/13 01:14:52;;;;;;;6.18;1.95;;;14.90;1.00;;;;;;5000666;28;20034;-73
2023/08/13 01:17:18;;;;;;;8.38;2.17;;;14.90;1.00;;;;;;4982191;28;20113;-73
2023/08/13 01:19:44;;;;;;;7.22;2.05;;;14.80;1.00;;;;;;4985494;28;20444;-73
2023/08/13 01:22:10;;;;;;;10.32;1.95;;;14.80;1.00;;;;;;4987594;28;20050;-73
2023/08/13 01:24:35;;;;;;;14.52;2.53;;;14.80;1.00;;;;;;5009203;28;20409;-72
2023/08/13 01:27:18;;;;;;;5.10;1.77;;;14.70;1.00;;;;;;4991925;28;20409;-73
2023/08/13 01:30:26;;;;;;;4.75;1.83;;;14.80;1.00;;;;;;4984488;28;20065;-73
2023/08/13 01:33:19;;;;;;;7.53;2.63;;;14.80;1.00;;;;;;4913783;28;20081;-74
2023/08/13 01:35:46;;;;;;;10.32;1.88;;;14.70;1.00;;;;;;4967219;28;20104;-74
2023/08/13 01:38:13;;;;;;;8.40;2.10;;;14.70;1.00;;;;;;5002952;28;20456;-73
2023/08/13 01:40:39;;;;;;;8.75;2.13;;;14.70;1.00;;;;;;4978377;28;20752;-73
2023/08/13 01:43:04;;;;;;;8.82;2.35;;;14.80;1.00;;;;;;4988008;28;20125;-73
2023/08/13 01:45:30;;;;;;;10.05;2.35;;;14.80;1.00;;;;;;4990571;28;20648;-73
2023/08/13 01:47:56;;;;;;;8.57;2.20;;;14.80;1.00;;;;;;4987958;28;20066;-73
2023/08/13 01:50:22;;;;;;;7.80;1.98;;;14.80;1.00;;;;;;4985854;28;20042;-73
2023/08/13 01:52:48;;;;;;;8.35;2.13;;;14.80;1.00;;;;;;4986525;28;20590;-73
2023/08/13 01:55:13;;;;;;;11.85;2.58;;;14.80;1.00;;;;;;5001822;28;20042;-74
2023/08/13 01:57:39;;;;;;;9.45;2.15;;;14.80;1.00;;;;;;4987605;28;20061;-73
2023/08/13 02:00:07;;;;;;;7.20;2.25;;;14.80;1.00;;;;;;4986285;28;20109;-73
2023/08/13 02:02:34;;;;;;;7.90;2.13;;;14.90;1.00;;;;;;4988147;28;20038;-74
2023/08/13 02:05:00;;;;;;;6.65;2.22;;;14.90;1.00;;;;;;4988100;28;20046;-74
2023/08/13 02:07:26;;;;;;;10.35;2.30;;;15.00;1.00;;;;;;5000147;28;20563;-73
2023/08/13 02:09:51;;;;;;;7.47;3.05;;;15.00;1.00;;;;;;4986491;28;20049;-73
2023/08/13 02:12:17;;;;;;;8.55;2.03;;;15.00;1.00;;;;;;4983976;28;20046;-73
2023/08/13 02:14:43;;;;;;;7.55;1.92;;;15.00;1.00;;;;;;4988847;28;20433;-73
2023/08/13 02:17:14;;;;;;;6.15;1.80;;;15.00;1.00;;;;;;4986076;28;20133;-73
2023/08/13 02:19:40;;;;;;;11.55;2.10;;;15.00;1.00;;;;;;4984373;28;20057;-74
2023/08/13 02:22:06;;;;;;;7.35;2.20;;;14.90;1.00;;;;;;4984288;28;20039;-74
2023/08/13 02:24:32;;;;;;;8.27;2.17;;;14.90;1.00;;;;;;4985965;28;20042;-74
2023/08/13 02:26:57;;;;;;;12.88;2.75;;;14.80;1.00;;;;;;4978949;28;20161;-73
2023/08/13 02:29:23;;;;;;;12.82;2.25;;;14.80;1.00;;;;;;4985322;28;20040;-73
2023/08/13 02:31:48;;;;;;;7.65;2.13;;;14.80;1.00;;;;;;4999944;28;20668;-74
2023/08/13 02:34:14;;;;;;;9.88;3.10;;;14.70;1.00;;;;;;4974353;28;20149;-73
2023/08/13 02:36:40;;;;;;;10.23;2.60;;;14.70;1.00;;;;;;4991014;28;20034;-74
2023/08/13 02:39:05;;;;;;;7.78;1.98;;;14.60;1.00;;;;;;4970632;28;20521;-73
2023/08/13 02:41:31;;;;;;;10.40;2.90;;;14.50;1.00;;;;;;4986877;28;20038;-73
2023/08/13 02:43:57;;;;;;;10.68;2.28;;;14.40;2.30;;;;;;5001678;28;20042;-74
2023/08/13 02:46:25;;;;;;;11.48;2.47;;;14.40;7.20;;;;;;4987487;28;20151;-73
2023/08/13 02:48:55;;;;;;;6.97;1.98;;;14.40;19.00;;;;;;5009002;28;20038;-74
2023/08/13 02:51:21;;;;;;;9.20;2.25;;;14.40;25.60;;;;;;4988451;28;20117;-74
2023/08/13 02:53:47;;;;;;;9.25;2.13;;;14.40;26.70;;;;;;5001576;28;20773;-74
2023/08/13 02:56:12;;;;;;;7.97;2.67;;;14.30;31.30;;;;;;4969158;28;20042;-73
2023/08/13 02:58:38;;;;;;;7.68;2.15;;;14.30;34.80;;;;;;4991151;28;20054;-73
2023/08/13 03:01:04;;;;;;;11.57;1.95;;;14.30;47.90;;;;;;4987259;28;20069;-73
2023/08/13 03:03:30;;;;;;;7.70;2.25;;;14.30;52.40;;;;;;4995521;28;20097;-74
2023/08/13 03:05:56;;;;;;;6.20;1.90;;;14.20;52.30;;;;;;4985346;28;20482;-74
2023/08/13 03:08:22;;;;;;;5.35;2.13;;;14.20;62.60;;;;;;4979362;28;20054;-74
2023/08/13 03:10:47;;;;;;;8.88;2.90;;;14.20;71.50;;;;;;4984403;28;20516;-73
2023/08/13 03:13:13;;;;;;;10.95;3.08;;;14.20;71.40;;;;;;4983801;28;20444;-74
2023/08/13 03:15:39;;;;;;;10.93;2.08;;;14.10;77.10;;;;;;4986158;28;20180;-74
2023/08/13 03:18:05;;;;;;;11.52;2.30;;;14.10;82.00;;;;;;4983002;28;20501;-73
2023/08/13 03:20:30;;;;;;;6.03;2.33;;;14.10;90.50;;;;;;4999995;28;20038;-73
2023/08/13 03:22:56;;;;;;;7.72;2.53;;;14.10;92.20;;;;;;4972764;28;20173;-73
2023/08/13 03:25:22;;;;;;;11.07;3.00;;;14.10;99.10;;;;;;4983251;28;20043;-73
2023/08/13 03:27:48;;;;;;;8.02;2.75;;;14.10;99.90;;;;;;4995837;28;20104;-73
2023/08/13 03:30:15;;;;;;;9.55;2.42;;;14.10;99.90;;;;;;4982360;28;20517;-73
2023/08/13 03:32:40;;;;;;;9.70;2.50;;;14.10;99.90;;;;;;4983080;28;20026;-73
2023/08/13 03:35:06;;;;;;;8.55;2.60;;;14.10;99.90;;;;;;5008844;28;20562;-73
2023/08/13 03:37:32;;;;;;;11.43;3.13;;;14.10;99.90;;;;;;4992771;28;20792;-73
2023/08/13 03:39:57;;;;;;;6.65;2.35;;;14.10;99.90;;;;;;4986875;28;20038;-73
2023/08/13 03:42:23;;;;;;;13.60;2.70;;;14.10;99.90;;;;;;4973863;28;20381;-73
2023/08/13 03:44:48;;;;;;;6.18;2.58;;;14.10;99.90;;;;;;4988369;28;20042;-73
2023/08/13 03:47:14;;;;;;;10.55;2.60;;;14.00;99.90;;;;;;4992303;28;20132;-73
2023/08/13 03:49:40;;;;;;;9.23;2.70;;;14.10;99.90;;;;;;4990891;28;20039;-73
2023/08/13 03:52:06;;;;;;;7.30;2.58;;;14.10;99.90;;;;;;5004549;28;20061;-73
2023/08/13 03:54:31;;;;;;;6.78;2.55;;;14.10;99.90;;;;;;4993206;28;20047;-73
2023/08/13 03:56:57;;;;;;;6.82;2.90;;;14.10;99.90;;;;;;5006544;28;20125;-73
2023/08/13 03:59:23;;;;;;;8.18;2.72;;;14.10;99.90;;;;;;4989328;28;20061;-73
2023/08/13 04:01:48;;;;;;;8.25;2.55;;;14.00;99.90;;;;;;4975350;28;20074;-73
2023/08/13 04:04:14;;;;;;;9.45;2.42;;;14.00;99.90;;;;;;5004557;28;20049;-73
2023/08/13 04:06:40;;;;;;;14.73;3.17;;;14.00;99.90;;;;;;4988728;28;20042;-72
2023/08/13 04:09:06;;;;;;;12.80;2.70;;;14.00;99.90;;;;;;4989034;28;20049;-73
2023/08/13 04:11:31;;;;;;;12.75;2.78;;;14.00;99.90;;;;;;5001386;28;20442;-73
2023/08/13 04:13:57;;;;;;;19.45;3.40;;;14.00;99.90;;;;;;5003686;28;20042;-73
2023/08/13 04:16:22;;;;;;;7.70;2.60;;;14.00;99.90;;;;;;5003238;28;20121;-73
2023/08/13 04:18:50;;;;;;;13.68;3.08;;;14.00;99.90;;;;;;5005827;28;20125;-72
2023/08/13 04:21:16;;;;;;;8.07;2.47;;;14.10;99.90;;;;;;4999078;28;20050;-72
2023/08/13 04:23:41;;;;;;;9.10;3.90;;;14.10;99.90;;;;;;4999326;28;20043;-73
2023/08/13 04:26:07;;;;;;;14.05;3.70;;;14.20;99.90;;;;;;4996662;28;20792;-73
2023/08/13 04:28:34;;;;;;;8.30;2.60;;;14.20;99.90;;;;;;4991612;28;20467;-73
2023/08/13 04:31:00;;;;;;;11.07;2.70;;;14.30;99.90;;;;;;5003967;28;20421;-73
2023/08/13 04:33:25;;;;;;;10.10;3.35;;;14.40;99.90;;;;;;4988643;28;20035;-73
2023/08/13 04:35:53;;;;;;;10.02;3.00;;;14.50;99.90;;;;;;5001536;28;20042;-73
2023/08/13 04:38:19;;;;;;;14.85;2.78;;;14.60;99.90;;;;;;4982011;28;20401;-73
2023/08/13 04:40:48;;;;;;;10.65;2.90;;;14.70;99.90;;;;;;4989358;28;20123;-73
2023/08/13 04:43:15;;;;;;;8.05;2.47;;;14.70;99.90;;;;;;4984553;28;20047;-73
2023/08/13 04:45:44;;;;;;;7.90;2.40;;;14.80;99.90;;;;;;5004766;28;20037;-72
2023/08/13 04:48:09;;;;;;;11.52;2.88;;;14.80;99.90;;;;;;4989623;28;20042;-71
2023/08/13 04:50:35;;;;;;;9.32;2.70;;;14.90;99.90;;;;;;4991142;28;20460;-73
2023/08/13 04:53:01;;;;;;;9.48;3.20;;;15.00;99.90;;;;;;4990524;28;20033;-73
2023/08/13 04:55:26;;;;;;;5.20;2.13;;;15.00;99.90;;;;;;4973068;28;20082;-73
2023/08/13 04:57:52;;;;;;;7.43;2.60;;;15.10;99.90;;;;;;4988793;28;20034;-73
2023/08/13 05:00:17;;;;;;;13.25;2.38;;;15.20;99.90;;;;;;5000009;28;20038;-73
2023/08/13 05:02:43;;;;;;;10.75;3.05;;;15.30;99.90;;;;;;5002966;28;20034;-73
2023/08/13 05:05:09;;;;;;;6.63;2.70;;;15.50;99.90;;;;;;5005798;28;20049;-73
2023/08/13 05:07:34;;;;;;;11.15;3.00;;;15.50;99.90;;;;;;4987095;28;21058;-73
2023/08/13 05:10:00;;;;;;;10.52;2.75;;;15.60;99.90;;;;;;4988089;28;20070;-73
2023/08/13 05:12:25;;;;;;;9.00;2.53;;;15.70;99.90;;;;;;4987728;28;20042;-73
2023/08/13 05:14:51;;;;;;;11.48;2.45;;;15.70;99.90;;;;;;5002444;28;20050;-72
2023/08/13 05:17:21;;;;;;;7.22;2.25;;;15.80;99.90;;;;;;4986405;28;20078;-72
2023/08/13 05:19:47;;;;;;;8.82;3.63;;;15.80;99.90;;;;;;4992748;28;20514;-72
2023/08/13 05:22:13;;;;;;;10.30;2.90;;;15.80;98.50;;;;;;4987910;28;20074;-73
2023/08/13 05:24:39;;;;;;;9.40;2.67;;;15.80;98.10;;;;;;4994710;28;20074;-73
2023/08/13 05:27:05;;;;;;;5.72;2.13;;;15.90;98.50;;;;;;4992810;28;20042;-73
2023/08/13 05:29:30;;;;;;;6.97;2.67;;;16.00;96.80;;;;;;4987662;28;20054;-73
2023/08/13 05:31:56;;;;;;;8.18;1.98;;;16.10;94.80;;;;;;4986496;28;20042;-72
2023/08/13 05:34:22;;;;;;;9.80;3.35;;;16.20;91.00;;;;;;4990094;28;20041;-73
2023/08/13 05:36:47;;;;;;;6.60;2.35;;;16.30;90.30;;;;;;4970180;28;20035;-73
2023/08/13 05:39:13;;;;;;;10.18;2.22;;;16.50;70.60;;;;;;4987395;28;20072;-73
2023/08/13 05:41:38;;;;;;;8.65;2.75;;;16.60;62.70;;;;;;4987148;28;20116;-73
2023/08/13 05:44:04;;;;;;;9.10;3.75;;;16.70;56.20;;;;;;4990090;28;20096;-73
2023/08/13 05:46:30;;;;;;;9.23;2.60;;;16.90;46.70;;;;;;4988010;28;20484;-73
2023/08/13 05:48:55;;;;;;;9.32;2.35;;;17.00;22.80;;;;;;4990382;28;20038;-73
2023/08/13 05:51:22;;;;;;;9.55;2.72;;;17.10;4.40;;;;;;4993340;28;20046;-73
2023/08/13 05:53:48;;;;;;;7.88;2.55;;;17.10;3.30;;;;;;4981512;28;20092;-73
2023/08/13 05:56:13;;;;;;;5.03;2.08;;;17.10;1.00;;;;;;4982352;28;20038;-73
2023/08/13 05:58:39;;;;;;;7.10;2.50;;;17.00;1.00;;;;;;4985496;28;20038;-74
2023/08/13 06:01:04;;;;;;;5.30;2.42;;;17.00;1.00;;;;;;4986266;28;20077;-73
2023/08/13 06:03:30;;;;;;;8.73;2.63;;;16.90;1.00;;;;;;4987337;28;20497;-73
2023/08/13 06:05:56;;;;;;;5.55;2.05;;;16.70;1.00;;;;;;4986495;28;20057;-73
2023/08/13 06:08:22;;;;;;;8.70;2.53;;;16.70;1.00;;;;;;4970937;28;20065;-73
2023/08/13 06:10:48;;;;;;;7.18;2.75;;;16.60;1.00;;;;;;4986913;28;20416;-73
2023/08/13 06:13:13;;;;;;;10.85;2.75;;;16.60;1.00;;;;;;4971726;28;20570;-73
2023/08/13 06:15:39;;;;;;;7.03;3.20;;;16.70;1.00;;;;;;4983399;28;20497;-75
2023/08/13 06:18:05;;;;;;;7.85;2.28;;;16.90;8.70;;;;;;4980018;28;20031;-73
2023/08/13 06:20:31;;;;;;;6.78;2.50;;;17.20;13.00;;;;;;4986418;28;20043;-73
2023/08/13 06:22:57;;;;;;;7.80;2.22;;;17.40;13.00;;;;;;4982927;28;20042;-73
2023/08/13 06:25:23;;;;;;;6.60;2.17;;;17.60;18.70;;;;;;4986692;28;20038;-73
2023/08/13 06:27:48;;;;;;;8.98;2.55;;;17.60;1.00;;;;;;4986721;28;20031;-73
2023/08/13 06:30:14;;;;;;;10.88;2.63;;;17.60;1.00;;;;;;5002717;28;20065;-74
2023/08/13 06:32:40;;;;;;;9.15;2.20;;;17.70;1.00;;;;;;4967411;28;20049;-74
2023/08/13 06:35:06;;;;;;;8.60;2.28;;;17.90;1.00;;;;;;4985962;28;20034;-74
2023/08/13 06:37:32;;;;;;;9.35;2.63;;;18.00;1.00;;;;;;4981364;28;20030;-74
2023/08/13 06:39:57;;;;;;;8.00;2.10;;;18.00;1.00;;;;;;4998835;28;20042;-74
2023/08/13 06:42:23;;;;;;;8.68;2.40;;;17.90;1.00;;;;;;4987604;28;20054;-73
2023/08/13 06:44:49;;;;;;;8.70;2.63;;;18.00;1.00;;;;;;4971427;28;20047;-74
2023/08/13 06:47:14;;;;;;;5.95;2.35;;;17.90;1.00;;;;;;4987522;28;20046;-74
2023/08/13 06:49:40;;;;;;;7.82;3.08;;;17.90;1.00;;;;;;4986991;28;20034;-74
2023/08/13 06:52:06;;;;;;;8.60;2.40;;;17.90;1.00;;;;;;4978537;28;20096;-75
2023/08/13 06:54:32;;;;;;;5.25;2.40;;;17.80;1.00;;;;;;4961624;28;20382;-74
2023/08/13 06:56:59;;;;;;;11.13;2.88;;;17.90;1.00;;;;;;4987651;28;20038;-73
2023/08/13 06:59:24;;;;;;;8.63;2.67;;;17.90;1.00;;;;;;4982051;28;20093;-74
2023/08/13 07:01:50;;;;;;;12.80;2.72;;;17.90;1.00;;;;;;4992912;28;20046;-74
2023/08/13 07:04:16;;;;;;;12.20;2.60;;;17.80;1.00;;;;;;5001256;28;20053;-74
2023/08/13 07:06:42;;;;;;;9.68;2.97;;;17.70;1.00;;;;;;4987203;28;20046;-74
2023/08/13 07:09:07;;;;;;;6.85;2.45;;;17.70;1.00;;;;;;4969124;28;20042;-74
2023/08/13 07:11:33;;;;;;;11.77;3.05;;;17.80;1.00;;;;;;4982207;28;20046;-73
2023/08/13 07:13:59;;;;;;;9.30;2.17;;;17.80;1.00;;;;;;4986253;28;20034;-73
2023/08/13 07:16:24;;;;;;;7.30;3.67;;;18.00;1.00;;;;;;4987250;28;20061;-73
2023/08/13 07:18:50;;;;;;;7.88;2.70;;;18.20;1.00;;;;;;4974428;28;20042;-73
2023/08/13 07:21:16;;;;;;;5.65;2.10;;;18.40;1.00;;;;;;4991592;28;20046;-73
2023/08/13 07:23:42;;;;;;;9.38;2.60;;;18.50;1.00;;;;;;4990689;28;20038;-73
2023/08/13 07:26:08;;;;;;;5.07;2.05;;;18.50;1.00;;;;;;4991041;28;20050;-73
2023/08/13 07:28:38;;;;;;;10.57;2.33;;;18.70;1.00;;;;;;4989453;28;20173;-73
2023/08/13 07:31:04;;;;;;;10.20;2.30;;;18.90;1.00;;;;;;4990703;28;20076;-75
2023/08/13 07:33:33;;;;;;;9.55;2.65;;;19.00;1.00;;;;;;5006835;28;20039;-74
2023/08/13 07:36:00;;;;;;;7.03;2.65;;;19.10;1.00;;;;;;5003852;28;20046;-74
2023/08/13 07:38:27;;;;;;;7.07;2.40;;;19.10;1.00;;;;;;4981711;28;20034;-74
2023/08/13 07:40:53;;;;;;;4.88;2.10;;;19.10;1.00;;;;;;4985872;28;20177;-73
2023/08/13 07:43:18;;;;;;;5.18;2.03;;;19.10;99.90;;;;;;4988071;28;20129;-74
2023/08/13 07:45:44;;;;;;;10.70;2.92;;;19.20;99.90;;;;;;4983455;28;20038;-74
2023/08/13 07:48:10;;;;;;;10.70;2.47;;;19.40;99.90;;;;;;4986700;28;20034;-74
2023/08/13 07:50:35;;;;;;;5.97;2.33;;;19.50;99.90;;;;;;4983717;28;20616;-74
2023/08/13 07:53:01;;;;;;;6.43;2.50;;;19.70;99.90;;;;;;5003493;28;20034;-74
2023/08/13 07:55:27;;;;;;;8.63;2.58;;;19.80;99.90;;;;;;4986113;28;20031;-74
2023/08/13 07:57:52;;;;;;;7.20;2.60;;;19.80;1.00;;;;;;4986307;28;20108;-74
2023/08/13 08:00:18;;;;;;;7.03;2.10;;;19.80;1.00;;;;;;4988362;28;20042;-74
2023/08/13 08:02:43;;;;;;;6.25;1.90;;;19.80;1.00;;;;;;4987867;28;20801;-74
2023/08/13 08:05:10;;;;;;;7.55;3.28;;;19.80;1.00;;;;;;5006523;28;20057;-74
2023/08/13 08:07:36;;;;;;;3.95;1.65;;;20.00;1.00;;;;;;5006043;28;20065;-74
2023/08/13 08:10:03;;;;;;;6.47;1.88;;;20.10;1.00;;;;;;4988046;28;20050;-74
2023/08/13 08:12:29;;;;;;;7.55;1.45;;;20.10;1.00;;;;;;4985756;28;21006;-74
2023/08/13 08:14:55;;;;;;;7.60;1.77;;;20.10;99.90;;;;;;4981244;28;20129;-74
2023/08/13 08:17:21;;;;;;;4.70;1.77;;;20.10;1.00;;;;;;4982503;28;20045;-74
2023/08/13 08:19:48;;;;;;;8.18;2.53;;;20.20;99.90;;;;;;4981107;28;20092;-74
2023/08/13 08:22:15;;;;;;;5.90;1.80;;;20.30;99.90;;;;;;4980722;28;20046;-73
2023/08/13 08:24:40;;;;;;;5.40;1.48;;;20.40;99.90;;;;;;4976918;28;20058;-75
2023/08/13 08:27:07;;;;;;;6.43;1.30;;;20.60;99.90;;;;;;4990366;28;20048;-75
2023/08/13 08:29:34;;;;;;;5.45;1.80;;;20.90;99.90;;;;;;4987186;28;20050;-74
2023/08/13 08:31:59;;;;;;;3.80;0.90;;;21.00;99.90;;;;;;4985551;28;20424;-75
2023/08/13 08:34:26;;;;;;;5.35;1.15;;;21.10;99.90;;;;;;4987510;28;20038;-75
2023/08/13 08:36:51;;;;;;;7.32;1.60;;;21.20;99.90;;;;;;4987533;28;20507;-75
2023/08/13 08:39:18;;;;;;;7.82;1.70;;;21.30;99.90;;;;;;4982649;28;20043;-75
2023/08/13 08:41:47;;;;;;;4.95;1.35;;;21.40;99.90;;;;;;4997812;28;20050;-75
2023/08/13 08:44:21;;;;;;;2.95;1.20;;;21.50;99.90;;;;;;4965519;28;20089;-75
2023/08/13 08:46:49;;;;;;;4.30;0.98;;;21.40;99.90;;;;;;4992453;28;20508;-75
2023/08/13 08:49:17;;;;;;;3.67;1.10;;;21.40;99.90;;;;;;4968133;28;20193;-75
2023/08/13 08:51:44;;;;;;;4.10;1.52;;;21.50;99.90;;;;;;4984701;28;20039;-76
2023/08/13 08:54:10;;;;;;;5.95;1.45;;;21.60;99.90;;;;;;4981955;28;20038;-76
2023/08/13 08:56:36;;;;;;;2.92;1.55;;;21.70;99.90;;;;;;4986535;28;20034;-77
2023/08/13 08:59:01;;;;;;;3.08;1.00;;;21.90;99.90;;;;;;4981524;28;20832;-76
2023/08/13 09:01:27;;;;;;;4.32;1.13;;;22.80;99.90;;;;;;4985821;28;20050;-76
2023/08/13 09:03:54;;;;;;;3.55;1.10;;;23.80;56.20;;;;;;4984267;28;20074;-77
2023/08/13 09:06:20;;;;;;;4.72;1.15;;;24.70;1.00;;;;;;4979905;28;20185;-75
2023/08/13 09:08:45;;;;;;;3.22;1.00;;;24.60;1.00;;;;;;4998195;28;20121;-77
2023/08/13 09:11:11;;;;;;;4.13;1.20;;;25.00;1.00;;;;;;4987346;28;20102;-76
2023/08/13 09:13:49;;;;;;;5.18;1.50;;;25.50;1.00;;;;;;4986705;28;20519;-76
2023/08/13 09:16:15;;;;;;;4.63;0.93;;;26.40;1.00;;;;;;4981889;28;20043;-77
2023/08/13 09:18:41;;;;;;;3.90;1.75;;;27.10;1.00;;;;;;4986089;28;20034;-77
2023/08/13 09:21:08;;;;;;;4.10;1.20;;;26.40;1.00;;;;;;4990409;28;20039;-77
2023/08/13 09:23:38;;;;;;;3.95;1.38;;;25.80;1.00;;;;;;5002562;28;20038;-76
2023/08/13 09:26:04;;;;;;;3.10;0.95;;;25.30;1.00;;;;;;4984421;28;20046;-76
2023/08/13 09:28:29;;;;;;;3.92;1.10;;;24.90;1.00;;;;;;4984448;28;20046;-76
2023/08/13 09:30:57;;;;;;;2.67;1.00;;;24.60;1.00;;;;;;5002346;28;20077;-76
2023/08/13 09:33:23;;;;;;;2.10;1.27;;;24.40;1.00;;;;;;4974523;28;20101;-76
2023/08/13 09:35:48;;;;;;;4.07;1.30;;;24.60;1.00;;;;;;4982910;28;20587;-77
2023/08/13 09:38:14;;;;;;;5.95;1.85;;;25.40;1.00;;;;;;4988154;28;20141;-77
2023/08/13 09:40:43;;;;;;;5.40;1.13;;;26.00;1.00;;;;;;5003377;28;20073;-78
2023/08/13 09:43:11;;;;;;;3.35;1.17;;;25.80;1.00;;;;;;4996292;28;20042;-77
2023/08/13 09:45:36;;;;;;;5.03;0.90;;;25.90;1.00;;;;;;4986592;28;20041;-77
2023/08/13 09:48:06;;;;;;;2.67;1.23;;;26.10;1.00;;;;;;4986506;28;20034;-76
2023/08/13 09:50:34;;;;;;;2.78;1.13;;;27.20;1.00;;;;;;4968894;28;20065;-76
2023/08/13 09:53:02;;;;;;;3.05;0.95;;;27.60;1.00;;;;;;4989950;28;20041;-77
2023/08/13 09:55:32;;;;;;;3.65;0.90;;;27.90;1.00;;;;;;4997589;28;20034;-76
2023/08/13 09:58:00;;;;;;;2.50;1.02;;;27.00;1.00;;;;;;4983006;28;20038;-76
2023/08/13 10:00:27;;;;;;;5.47;1.25;;;25.90;1.00;;;;;;4986006;28;20068;-75
2023/08/13 10:02:53;;;;;;;2.15;0.95;;;25.60;1.00;;;;;;5003340;28;20064;-75
2023/08/13 10:05:19;;;;;;;2.88;0.82;;;26.20;1.00;;;;;;4985080;28;20050;-76
2023/08/13 10:07:45;;;;;;;2.72;0.60;;;26.70;1.00;;;;;;4983076;28;20116;-75
2023/08/13 10:10:11;;;;;;;3.83;1.00;;;27.30;1.00;;;;;;4984401;28;20038;-75
2023/08/13 10:12:38;;;;;;;3.15;0.88;;;28.30;1.00;;;;;;4999753;28;20050;-76
2023/08/13 10:15:05;;;;;;;4.63;0.88;;;28.50;1.00;;;;;;4984587;28;20500;-75
2023/08/13 10:17:32;;;;;;;1.95;0.60;;;27.60;1.00;;;;;;4967446;28;20038;-75
2023/08/13 10:19:59;;;;;;;4.05;1.30;;;26.60;1.00;;;;;;5002281;28;20444;-75
2023/08/13 10:22:39;;;;;;;3.67;1.15;;;25.60;1.00;;;;;;4986827;28;20132;-75
2023/08/13 10:25:07;;;;;;;2.67;0.65;;;24.90;1.00;;;;;;4994014;28;20042;-75
2023/08/13 10:27:43;;;;;;;3.42;0.80;;;24.30;1.00;;;;;;4984290;28;20049;-75
2023/08/13 10:30:11;;;;;;;2.25;0.68;;;24.00;1.00;;;;;;5000961;28;20062;-75
2023/08/13 10:32:58;;;;;;;3.53;0.60;;;24.00;1.00;;;;;;4998640;28;20069;-74
2023/08/13 10:35:39;;;;;;;2.15;0.70;;;24.50;1.00;;;;;;4984650;28;20961;-75
2023/08/13 10:38:07;;;;;;;3.20;0.57;;;24.80;1.00;;;;;;4978572;28;20152;-74
2023/08/13 10:40:33;;;;;;;5.25;0.75;;;24.30;1.00;;;;;;4983703;28;20124;-74
2023/08/13 10:42:59;;;;;;;2.88;0.80;;;23.90;1.00;;;;;;4982054;28;20097;-75
2023/08/13 10:45:28;;;;;;;3.97;1.00;;;23.60;1.00;;;;;;4979479;28;20034;-75
2023/08/13 10:48:02;;;;;;;1.30;0.63;;;23.50;1.00;;;;;;4983354;28;20042;-75
2023/08/13 10:50:43;;;;;;;1.33;0.60;;;23.80;1.00;;;;;;4982967;28;20049;-76
2023/08/13 10:53:19;;;;;;;3.33;0.90;;;24.00;1.00;;;;;;4986386;28;20576;-76
2023/08/13 10:55:47;;;;;;;3.42;0.70;;;23.90;1.00;;;;;;4985734;28;20046;-76
2023/08/13 10:58:36;;;;;;;2.35;0.52;;;23.80;1.00;;;;;;4981239;28;20559;-76
2023/08/13 11:01:13;;;;;;;2.47;0.90;;;23.90;1.00;;;;;;5000492;28;20046;-76
2023/08/13 11:03:54;;;;;;;1.90;0.57;;;24.30;1.00;;;;;;4977688;28;20038;-76
2023/08/13 11:06:22;;;;;;;1.15;0.47;;;24.70;1.00;;;;;;4981894;28;20042;-75
2023/08/13 11:08:47;;;;;;;2.83;0.40;;;24.70;1.00;;;;;;4986101;28;20513;-76
2023/08/13 11:11:17;;;;;;;1.73;0.50;;;24.60;1.00;;;;;;4982125;28;20047;-76
2023/08/13 11:13:43;;;;;;;0.47;0.40;;;24.90;1.00;;;;;;5000093;28;20424;-76
2023/08/13 11:16:09;;;;;;;3.33;0.60;;;25.60;1.00;;;;;;4981370;28;20035;-76
2023/08/13 11:18:34;;;;;;;1.60;0.40;;;26.00;1.00;;;;;;4984302;28;20042;-76
2023/08/13 11:21:01;;;;;;;2.60;0.55;;;26.00;1.00;;;;;;4997878;28;20041;-76
2023/08/13 11:23:26;;;;;;;2.15;0.50;;;26.00;1.00;;;;;;4999909;28;20038;-76
2023/08/13 11:25:52;;;;;;;3.00;0.77;;;25.50;1.00;;;;;;4983086;28;20125;-76
2023/08/13 11:28:25;;;;;;;3.70;0.55;;;25.20;1.00;;;;;;4982784;28;20089;-76
2023/08/13 11:30:53;;;;;;;1.10;0.50;;;25.40;1.00;;;;;;4995644;28;20078;-75
2023/08/13 11:33:19;;;;;;;3.72;0.40;;;25.90;1.00;;;;;;4978087;28;20030;-74
2023/08/13 11:35:45;;;;;;;2.88;0.70;;;26.20;1.00;;;;;;4981249;28;20551;-75
2023/08/13 11:38:12;;;;;;;1.63;0.52;;;26.40;1.00;;;;;;4982477;28;20035;-75
2023/08/13 11:40:37;;;;;;;1.17;0.47;;;25.70;1.00;;;;;;4995106;28;20073;-75
2023/08/13 11:43:04;;;;;;;1.50;0.40;;;24.90;1.00;;;;;;4959938;28;20134;-75
2023/08/13 11:45:33;;;;;;;1.88;0.52;;;24.10;1.00;;;;;;4977489;28;20587;-74
2023/08/13 11:48:15;;;;;;;2.45;0.60;;;23.50;1.00;;;;;;4977319;28;20149;-75
2023/08/13 11:50:45;;;;;;;1.08;0.40;;;23.00;1.00;;;;;;4979701;28;20037;-74
2023/08/13 11:53:16;;;;;;;2.63;0.85;;;22.70;1.00;;;;;;4978807;28;20034;-74
2023/08/13 11:55:44;;;;;;;2.75;0.50;;;22.50;1.00;;;;;;4966680;28;20034;-75
2023/08/13 11:58:10;;;;;;;3.78;0.95;;;22.70;1.00;;;;;;4984516;28;20042;-74
2023/08/13 12:00:37;;;;;;;2.53;0.95;;;22.90;1.00;;;;;;4981732;28;20030;-74
2023/08/13 12:03:03;;;;;;;1.42;0.65;;;23.10;1.00;;;;;;4993558;28;20627;-74
2023/08/13 12:05:34;;;;;;;4.80;0.73;;;23.30;1.00;;;;;;4987341;28;20552;-74
2023/08/13 12:08:04;;;;;;;3.85;0.80;;;23.40;1.00;;;;;;4983549;28;20505;-74
2023/08/13 12:10:32;;;;;;;1.52;0.70;;;23.70;1.00;;;;;;4983351;28;20096;-75
2023/08/13 12:12:58;;;;;;;2.88;0.68;;;24.30;1.00;;;;;;4981962;28;20050;-75
2023/08/13 12:15:25;;;;;;;2.90;0.60;;;25.00;1.00;;;;;;5003600;28;20117;-75
2023/08/13 12:17:52;;;;;;;2.72;0.55;;;25.50;1.00;;;;;;4982228;28;20440;-74
2023/08/13 12:20:18;;;;;;;3.78;1.00;;;26.10;1.00;;;;;;4982872;28;20738;-75
2023/08/13 12:22:44;;;;;;;3.08;1.00;;;26.60;1.00;;;;;;4979965;28;20050;-75
2023/08/13 12:25:09;;;;;;;2.13;0.60;;;26.80;1.00;;;;;;4979543;28;20046;-75
2023/08/13 12:27:35;;;;;;;1.23;0.68;;;26.60;1.00;;;;;;4981738;28;20042;-75
2023/08/13 12:30:02;;;;;;;2.83;0.68;;;26.10;1.00;;;;;;4978630;28;20058;-74
2023/08/13 12:32:27;;;;;;;2.85;0.90;;;25.40;1.00;;;;;;4983083;28;20054;-76
2023/08/13 12:34:53;;;;;;;5.47;0.90;;;24.80;1.00;;;;;;4985447;28;20040;-77
2023/08/13 12:37:19;;;;;;;3.50;1.23;;;24.50;1.00;;;;;;4988084;28;20042;-76
2023/08/13 12:39:44;;;;;;;7.15;1.83;;;24.30;1.00;;;;;;4998240;28;20480;-77
2023/08/13 12:42:10;;;;;;;2.97;1.00;;;24.10;1.00;;;;;;4982624;28;20069;-76
2023/08/13 12:44:36;;;;;;;3.75;1.10;;;23.90;1.00;;;;;;4965740;28;20058;-76
2023/08/13 12:47:02;;;;;;;3.25;0.93;;;23.80;1.00;;;;;;4996103;28;20037;-77
2023/08/13 12:49:27;;;;;;;2.55;0.68;;;23.90;1.00;;;;;;4983261;28;20051;-76
2023/08/13 12:51:53;;;;;;;3.90;0.90;;;24.20;1.00;;;;;;4985533;28;20034;-76